Time;durP1;ratioP1;P1;durP2;ratioP2;P2;SDS_P1;SDS_P2;PMS_P1;PMS_P2;Temp;Humidity;BMP_temperature;BMP_pressure;BME280_temperature;BME280_humidity;BME280_pressure;Samples;Min_cycle;Max_cycle;Signal;HPM_P1;HPM_P2
2021/04/02 00:01:30;;;;;;;32.13;16.35;;;;;;;5.39;74.54;97232.06;5065560;28;20024;-87
2021/04/02 00:03:56;;;;;;;30.20;15.63;;;;;;;5.37;74.58;97222.44;5074753;28;20032;-88
2021/04/02 00:06:21;;;;;;;35.08;16.45;;;;;;;5.37;75.29;97225.09;5074871;28;20031;-87
2021/04/02 00:08:47;;;;;;;36.97;16.60;;;;;;;5.37;74.96;97227.75;5075013;28;20028;-88
2021/04/02 00:11:13;;;;;;;29.33;14.23;;;;;;;5.23;75.75;97223.06;5058063;28;20028;-88
2021/04/02 00:13:44;;;;;;;33.42;14.55;;;;;;;5.21;75.90;97213.47;5050231;28;20438;-87
2021/04/02 00:16:11;;;;;;;34.67;14.70;;;;;;;5.21;76.57;97214.34;5074392;28;20028;-88
2021/04/02 00:18:36;;;;;;;32.00;14.82;;;;;;;5.20;76.64;97214.44;5074263;28;20027;-88
2021/04/02 00:21:05;;;;;;;30.95;13.82;;;;;;;5.10;76.70;97210.47;5068013;28;20442;-88
2021/04/02 00:23:30;;;;;;;21.50;11.02;;;;;;;5.14;77.02;97214.69;5054691;28;20033;-88
2021/04/02 00:25:56;;;;;;;22.52;11.45;;;;;;;5.13;76.78;97213.00;5068215;28;20065;-87
2021/04/02 00:28:22;;;;;;;25.30;12.85;;;;;;;5.15;77.91;97208.47;5065240;28;20036;-87
2021/04/02 00:30:52;;;;;;;22.92;11.93;;;;;;;5.12;77.09;97205.97;5066748;28;20089;-87
2021/04/02 00:33:19;;;;;;;26.77;13.25;;;;;;;5.08;75.95;97199.94;5073916;28;20054;-87
2021/04/02 00:35:45;;;;;;;29.70;12.65;;;;;;;5.05;76.54;97197.41;5062021;28;20040;-87
2021/04/02 00:38:11;;;;;;;22.92;12.85;;;;;;;5.01;77.45;97193.22;5054473;28;20036;-87
2021/04/02 00:40:46;;;;;;;30.98;16.35;;;;;;;4.95;77.61;97177.59;5065080;28;20036;-87
2021/04/02 00:43:12;;;;;;;35.40;16.48;;;;;;;4.99;78.38;97188.88;5074269;28;20031;-88
2021/04/02 00:45:38;;;;;;;31.58;17.33;;;;;;;5.04;77.93;97192.19;5074076;28;20484;-88
2021/04/02 00:48:05;;;;;;;40.63;22.40;;;;;;;5.08;77.66;97193.75;5074169;28;20041;-88
2021/04/02 00:50:30;;;;;;;40.90;20.23;;;;;;;5.09;78.04;97196.34;5073864;28;20044;-87
2021/04/02 00:52:56;;;;;;;31.40;18.02;;;;;;;4.98;78.56;97182.75;5085499;28;20043;-87
2021/04/02 00:55:22;;;;;;;38.25;18.80;;;;;;;5.03;78.23;97179.88;5070559;28;20028;-88
2021/04/02 00:57:47;;;;;;;34.80;20.08;;;;;;;5.02;77.80;97173.72;5074146;28;20028;-88
2021/04/02 01:00:14;;;;;;;35.10;17.02;;;;;;;4.98;78.45;97163.34;5058353;28;20035;-87
2021/04/02 01:02:40;;;;;;;33.15;15.57;;;;;;;4.98;78.36;97177.44;5053498;28;20032;-87
2021/04/02 01:05:09;;;;;;;28.73;14.63;;;;;;;4.98;78.49;97171.28;5069126;28;20092;-87
2021/04/02 01:07:34;;;;;;;29.20;16.15;;;;;;;4.87;79.00;97162.03;5082580;28;20385;-87
2021/04/02 01:10:00;;;;;;;25.13;13.55;;;;;;;4.73;79.12;97153.84;5054387;28;20044;-87
2021/04/02 01:12:25;;;;;;;28.92;13.93;;;;;;;4.81;78.45;97157.00;5053371;28;20031;-87
2021/04/02 01:14:51;;;;;;;25.98;12.82;;;;;;;4.84;77.90;97154.22;5058368;28;20560;-88
2021/04/02 01:17:20;;;;;;;33.47;14.73;;;;;;;4.78;78.54;97148.34;5066221;28;20031;-89
2021/04/02 01:19:47;;;;;;;33.75;14.32;;;;;;;4.74;79.10;97144.09;5075025;28;20023;-87
2021/04/02 01:22:24;;;;;;;29.27;13.48;;;;;;;4.75;79.29;97143.19;5066854;28;20096;-87
2021/04/02 01:25:13;;;;;;;34.95;14.02;;;;;;;4.79;80.16;97139.47;5053463;28;20032;-87
2021/04/02 01:28:15;;;;;;;27.33;13.68;;;;;;;4.86;80.35;97136.44;5070634;28;20104;-88
2021/04/02 01:30:41;;;;;;;31.42;13.50;;;;;;;4.79;80.48;97118.28;5089164;28;20399;-88
2021/04/02 01:33:08;;;;;;;26.33;14.52;;;;;;;4.83;80.25;97130.44;5074348;28;20028;-88
2021/04/02 01:35:36;;;;;;;30.30;14.13;;;;;;;4.86;80.65;97122.38;5074690;28;20024;-88
2021/04/02 01:38:13;;;;;;;28.10;14.90;;;;;;;4.82;79.88;97118.13;5073732;28;20110;-88
2021/04/02 01:40:46;;;;;;;27.50;13.90;;;;;;;4.78;80.28;97106.81;5081022;28;20025;-89
2021/04/02 01:43:16;;;;;;;29.35;13.70;;;;;;;4.83;80.25;97109.22;5068811;28;20032;-88
2021/04/02 01:45:43;;;;;;;29.13;12.48;;;;;;;4.78;79.48;97101.53;5055545;28;20025;-88
2021/04/02 01:48:09;;;;;;;20.77;11.63;;;;;;;4.79;79.38;97097.94;5059550;28;20476;-88
2021/04/02 01:50:40;;;;;;;24.92;11.43;;;;;;;4.82;79.26;97095.16;5073539;28;20052;-88
2021/04/02 01:53:09;;;;;;;25.23;11.38;;;;;;;4.86;79.43;97101.19;5068717;28;20036;-88
2021/04/02 01:55:35;;;;;;;20.58;11.27;;;;;;;4.80;80.14;97098.78;5053472;28;20025;-87
2021/04/02 01:58:02;;;;;;;24.58;11.73;;;;;;;4.74;80.49;97083.16;5054405;28;20032;-88
2021/04/02 02:00:34;;;;;;;22.08;11.40;;;;;;;4.72;81.41;97091.22;5056651;28;20380;-88
2021/04/02 02:03:00;;;;;;;26.50;11.63;;;;;;;4.76;81.30;97082.19;5069635;28;20400;-88
2021/04/02 02:05:30;;;;;;;27.45;11.77;;;;;;;4.75;80.96;97090.19;5077332;28;20024;-87
2021/04/02 02:07:58;;;;;;;28.67;11.75;;;;;;;4.64;81.42;97071.31;5073539;28;20399;-87
2021/04/02 02:10:25;;;;;;;26.95;12.02;;;;;;;4.79;81.69;97091.78;5057364;28;20028;-87
2021/04/02 02:12:51;;;;;;;28.38;14.10;;;;;;;4.72;81.08;97070.00;5056815;28;20028;-87
2021/04/02 02:15:18;;;;;;;65.15;24.63;;;;;;;4.76;80.95;97082.19;5056624;28;20432;-86
2021/04/02 02:17:48;;;;;;;37.53;15.95;;;;;;;4.72;81.46;97080.59;5064856;28;20067;-87
2021/04/02 02:20:17;;;;;;;27.75;13.02;;;;;;;4.74;81.60;97078.75;5062105;28;20032;-87
2021/04/02 02:22:42;;;;;;;24.55;11.88;;;;;;;4.75;81.39;97074.31;5066877;28;20020;-87
2021/04/02 02:25:10;;;;;;;39.13;15.45;;;;;;;4.69;81.61;97074.59;5056570;28;20035;-87
2021/04/02 02:27:36;;;;;;;46.50;18.45;;;;;;;4.62;83.23;97067.84;5056504;28;20170;-86
2021/04/02 02:30:10;;;;;;;70.47;26.10;;;;;;;4.59;82.55;97074.16;5056347;28;20025;-87
2021/04/02 02:32:36;;;;;;;67.53;26.67;;;;;;;4.53;82.88;97058.53;5056571;28;20029;-86
2021/04/02 02:35:02;;;;;;;63.55;23.42;;;;;;;4.63;82.16;97069.56;5056265;28;20055;-87
2021/04/02 02:37:28;;;;;;;55.15;23.90;;;;;;;4.61;82.14;97074.97;5072128;28;20166;-87
2021/04/02 02:39:54;;;;;;;63.03;25.38;;;;;;;4.53;82.42;97065.63;5084877;28;20119;-87
2021/04/02 02:42:19;;;;;;;66.72;26.23;;;;;;;4.49;82.16;97056.97;5076992;28;20031;-87
2021/04/02 02:44:45;;;;;;;52.88;18.55;;;;;;;4.53;81.71;97069.13;5076225;28;20120;-87
2021/04/02 02:47:11;;;;;;;42.38;15.75;;;;;;;4.46;82.92;97072.16;5071540;28;20082;-88
2021/04/02 02:49:37;;;;;;;29.00;13.18;;;;;;;4.37;82.68;97068.97;5056233;28;20032;-87
2021/04/02 02:52:04;;;;;;;25.88;12.75;;;;;;;4.31;83.48;97063.97;5063732;28;20201;-86
2021/04/02 02:54:30;;;;;;;28.42;12.50;;;;;;;4.27;83.93;97073.00;5055467;28;20029;-87
2021/04/02 02:56:57;;;;;;;30.80;12.40;;;;;;;4.27;84.83;97072.13;5055544;28;20050;-87
2021/04/02 02:59:25;;;;;;;29.92;11.80;;;;;;;4.20;84.27;97063.59;5073250;28;20016;-88
2021/04/02 03:01:52;;;;;;;30.17;12.35;;;;;;;4.17;84.40;97066.38;5055839;28;20081;-87
2021/04/02 03:04:19;;;;;;;24.88;11.38;;;;;;;3.98;85.51;97059.31;5055836;28;20063;-87
2021/04/02 03:06:46;;;;;;;22.90;12.43;;;;;;;3.93;85.94;97040.13;5072310;28;20028;-87
2021/04/02 03:09:13;;;;;;;30.98;12.38;;;;;;;4.03;85.65;97060.81;5056109;28;20514;-88
2021/04/02 03:11:41;;;;;;;22.55;11.45;;;;;;;4.03;85.55;97052.03;5063259;28;20039;-87
2021/04/02 03:14:07;;;;;;;29.05;12.88;;;;;;;3.88;86.87;97055.34;5076329;28;20081;-86
2021/04/02 03:16:42;;;;;;;27.65;12.70;;;;;;;3.90;87.42;97066.72;5075594;28;20032;-88
2021/04/02 03:19:08;;;;;;;34.33;17.75;;;;;;;3.89;88.00;97051.78;5047250;28;20051;-87
2021/04/02 03:21:35;;;;;;;48.20;24.45;;;;;;;3.90;87.16;97058.78;5055809;28;20020;-87
2021/04/02 03:24:01;;;;;;;43.75;17.85;;;;;;;3.86;87.93;97046.63;5076866;28;20039;-87
2021/04/02 03:26:27;;;;;;;37.13;13.50;;;;;;;3.87;88.72;97040.41;5070131;28;20028;-87
2021/04/02 03:28:53;;;;;;;34.47;15.30;;;;;;;3.96;88.13;97050.59;5055612;28;20074;-87
2021/04/02 03:31:20;;;;;;;32.28;15.73;;;;;;;4.06;87.49;97046.63;5055479;28;20090;-88
2021/04/02 03:33:51;;;;;;;38.90;17.50;;;;;;;4.11;87.21;97049.91;5072610;28;20028;-87
2021/04/02 03:36:18;;;;;;;44.13;20.88;;;;;;;4.15;85.45;97030.31;5056459;28;20028;-87
2021/04/02 03:38:45;;;;;;;44.60;20.02;;;;;;;4.23;85.69;97034.34;5071701;28;20035;-88
2021/04/02 03:41:14;;;;;;;52.53;24.42;;;;;;;4.30;84.08;97030.50;5047575;28;20024;-87
2021/04/02 03:43:41;;;;;;;46.13;22.02;;;;;;;4.29;83.11;97019.97;5055432;28;20066;-88
2021/04/02 03:46:09;;;;;;;50.75;23.67;;;;;;;4.38;82.21;97022.19;5074981;28;20552;-88
2021/04/02 03:48:40;;;;;;;46.05;21.30;;;;;;;4.41;83.22;97024.69;5061966;28;20025;-88
2021/04/02 03:51:06;;;;;;;45.72;21.05;;;;;;;4.40;83.32;97020.31;5069353;28;20462;-87
2021/04/02 03:53:42;;;;;;;45.35;20.42;;;;;;;4.36;83.86;97013.47;5075213;28;20035;-87
2021/04/02 03:56:12;;;;;;;42.30;18.65;;;;;;;4.35;84.29;97012.59;5072125;28;20064;-87
2021/04/02 03:58:40;;;;;;;47.00;19.73;;;;;;;4.17;85.24;97004.66;5055291;28;20032;-88
2021/04/02 04:01:13;;;;;;;48.75;18.58;;;;;;;4.13;84.96;97011.00;5065685;28;20503;-87
2021/04/02 04:03:44;;;;;;;42.55;17.33;;;;;;;4.11;85.47;97018.16;5068821;28;20191;-87
2021/04/02 04:06:13;;;;;;;37.78;16.35;;;;;;;4.01;85.66;97000.97;5058922;28;20503;-87
2021/04/02 04:08:40;;;;;;;34.03;16.33;;;;;;;4.04;86.03;96999.03;5061450;28;20039;-87
2021/04/02 04:11:07;;;;;;;37.60;17.30;;;;;;;4.11;87.09;97012.84;5057531;28;20036;-88
2021/04/02 04:13:34;;;;;;;49.58;22.05;;;;;;;4.17;86.54;97018.75;5075077;28;20023;-89
2021/04/02 04:16:02;;;;;;;58.00;26.50;;;;;;;4.25;86.15;97010.44;5066783;28;20118;-87
2021/04/02 04:18:30;;;;;;;67.07;30.52;;;;;;;4.29;86.65;97010.25;5070053;28;20032;-88
2021/04/02 04:20:58;;;;;;;73.43;33.58;;;;;;;4.47;86.27;97007.66;5055111;28;20507;-87
2021/04/02 04:23:24;;;;;;;69.65;31.30;;;;;;;4.56;84.77;97013.38;5093124;28;20035;-87
2021/04/02 04:25:53;;;;;;;72.68;33.20;;;;;;;4.71;85.37;97025.03;5058988;28;20037;-88
2021/04/02 04:28:20;;;;;;;77.95;34.90;;;;;;;4.78;84.07;97023.81;5066093;28;20440;-88
2021/04/02 04:30:47;;;;;;;75.32;35.13;;;;;;;4.96;82.99;97008.84;5059756;28;20035;-88
2021/04/02 04:33:13;;;;;;;81.88;35.03;;;;;;;5.08;83.10;97013.53;5071588;28;20039;-88
2021/04/02 04:35:39;;;;;;;106.55;35.55;;;;;;;5.10;82.01;97015.22;5069513;28;20107;-87
2021/04/02 04:38:06;;;;;;;72.95;29.45;;;;;;;5.14;81.53;97023.84;5065354;28;20039;-87
2021/04/02 04:40:32;;;;;;;83.13;34.78;;;;;;;5.17;80.80;97010.47;5076971;28;20024;-88
2021/04/02 04:42:58;;;;;;;91.05;31.08;;;;;;;5.18;81.63;97010.38;5074650;28;20063;-88
2021/04/02 04:45:24;;;;;;;75.47;30.75;;;;;;;5.04;80.78;97001.38;5074005;28;20032;-88
2021/04/02 04:47:50;;;;;;;77.75;30.70;;;;;;;5.05;81.49;96998.66;5067018;28;20097;-87
2021/04/02 04:50:16;;;;;;;80.80;33.10;;;;;;;5.24;82.01;97011.84;5062808;28;20086;-88
2021/04/02 04:53:04;;;;;;;80.50;34.65;;;;;;;5.22;80.68;96990.75;5054333;28;20468;-88
2021/04/02 04:55:35;;;;;;;80.85;33.35;;;;;;;5.04;81.40;96986.34;5058914;28;20055;-88
2021/04/02 04:58:01;;;;;;;90.85;36.28;;;;;;;5.19;80.67;97001.50;5066384;28;20580;-87
2021/04/02 05:00:29;;;;;;;97.05;43.33;;;;;;;5.26;80.28;97008.19;5066856;28;20052;-86
2021/04/02 05:02:55;;;;;;;91.15;43.05;;;;;;;5.44;79.84;97006.44;5067714;28;20094;-75
2021/04/02 05:05:30;;;;;;;108.00;45.15;;;;;;;5.52;79.17;97004.25;5082623;28;20105;-87
2021/04/02 05:07:58;;;;;;;138.27;52.10;;;;;;;5.52;78.95;97014.00;5054903;28;20032;-89
2021/04/02 05:10:23;;;;;;;133.43;53.83;;;;;;;5.57;79.37;97001.38;5051903;28;20105;-87
2021/04/02 05:12:50;;;;;;;124.75;55.03;;;;;;;5.81;78.56;97016.03;5058586;28;20036;-87
2021/04/02 05:15:17;;;;;;;131.38;55.45;;;;;;;5.87;77.68;97013.94;5078807;28;20401;-86
2021/04/02 05:17:44;;;;;;;123.50;49.80;;;;;;;6.09;76.44;96986.28;5066630;28;20044;-87
2021/04/02 05:20:10;;;;;;;123.13;54.00;;;;;;;6.28;75.68;97005.56;5071841;28;20028;-86
2021/04/02 05:22:36;;;;;;;129.63;55.97;;;;;;;6.39;75.19;97009.41;5057916;28;20484;-87
2021/04/02 05:25:08;;;;;;;121.70;56.38;;;;;;;6.64;73.60;97006.25;5073386;28;20040;-86
2021/04/02 05:27:36;;;;;;;109.47;49.92;;;;;;;6.96;72.83;96994.66;5071504;28;20028;-87
2021/04/02 05:30:11;;;;;;;123.93;52.38;;;;;;;7.28;71.59;97005.28;5062676;28;20085;-87
2021/04/02 05:36:58;;;;;;;70.72;29.45;;;;;;;7.49;68.80;96956.13;5085708;28;20067;-88
2021/04/02 05:39:26;;;;;;;63.70;27.50;;;;;;;8.47;65.50;97011.38;5062537;28;20037;-76
2021/04/02 05:55:59;;;;;;;72.75;32.58;;;;;;;10.51;56.92;97017.34;5082950;28;20038;-89
2021/04/02 06:47:25;;;;;;;;;;;;;;;;;;;;;
2021/04/02 07:07:57;;;;;;;81.20;41.22;;;;;;;23.52;27.87;97002.47;4953292;29;20030;-87
2021/04/02 07:10:37;;;;;;;;;;;;;;;;;;;;;
2021/04/02 07:13:08;;;;;;;104.10;53.30;;;;;;;23.35;29.13;96992.75;5010249;28;20046;-74
2021/04/02 07:15:35;;;;;;;99.15;50.03;;;;;;;24.12;27.50;96997.59;5011197;28;20129;-76
2021/04/02 07:18:05;;;;;;;71.72;26.15;;;;;;;24.01;27.03;96989.88;4978673;28;20042;-75
2021/04/02 07:20:33;;;;;;;69.05;23.75;;;;;;;22.92;29.09;96987.06;5014015;28;20109;-75
2021/04/02 07:23:01;;;;;;;76.15;20.00;;;;;;;22.24;30.58;96978.91;5074858;28;20082;-76
2021/04/02 07:25:28;;;;;;;61.88;15.73;;;;;;;21.83;30.40;96993.78;5068814;28;20028;-75
2021/04/02 07:27:57;;;;;;;82.65;15.15;;;;;;;22.02;30.71;96986.06;5054764;28;20044;-76
2021/04/02 07:30:24;;;;;;;50.10;12.80;;;;;;;21.41;31.82;96989.56;5054821;28;20100;-77
2021/04/02 07:32:50;;;;;;;53.97;14.05;;;;;;;21.62;32.44;96997.16;5046768;28;20440;-77
2021/04/02 07:35:17;;;;;;;43.00;13.05;;;;;;;23.11;30.94;96996.59;5072354;28;20107;-77
2021/04/02 07:37:48;;;;;;;57.22;12.85;;;;;;;23.93;29.30;96987.28;5054982;28;20025;-77
2021/04/02 07:40:13;;;;;;;76.35;14.32;;;;;;;24.50;28.81;96990.03;5047105;28;20050;-75
2021/04/02 07:42:48;;;;;;;37.78;11.85;;;;;;;23.98;29.18;96984.81;5054638;28;20471;-76
2021/04/02 07:45:25;;;;;;;27.75;10.07;;;;;;;23.67;29.25;96997.84;5054697;28;20031;-75
2021/04/02 07:47:55;;;;;;;28.05;9.80;;;;;;;22.04;31.32;97002.22;5038347;28;20024;-76
2021/04/02 07:50:39;;;;;;;18.13;9.45;;;;;;;22.95;31.06;97013.97;5054791;28;20086;-76
2021/04/02 07:56:24;;;;;;;148.82;17.92;;;;;;;27.69;25.27;97014.56;5081596;28;20162;-76
2021/04/02 07:58:56;;;;;;;48.92;15.00;;;;;;;29.00;23.73;97010.38;5076414;28;20031;-76
2021/04/02 08:01:23;;;;;;;55.90;12.52;;;;;;;30.29;22.64;96991.03;5065658;28;20024;-76
2021/04/02 08:03:50;;;;;;;66.78;14.45;;;;;;;28.82;23.91;96988.28;5057571;28;20032;-77
2021/04/02 08:06:32;;;;;;;60.92;13.82;;;;;;;28.06;24.41;97002.00;5057673;28;20028;-77
2021/04/02 08:08:58;;;;;;;51.38;13.20;;;;;;;26.66;25.70;96984.16;5092091;28;20032;-76
2021/04/02 08:11:29;;;;;;;30.50;12.80;;;;;;;25.54;26.94;96997.44;5057616;28;20028;-77
2021/04/02 08:13:59;;;;;;;22.35;11.80;;;;;;;24.57;28.21;96992.84;5054014;28;20083;-77
2021/04/02 08:16:43;;;;;;;29.83;11.65;;;;;;;25.02;28.09;96992.41;5050636;28;20028;-76
2021/04/02 08:19:12;;;;;;;41.25;12.18;;;;;;;27.09;25.44;96996.47;5091757;28;20491;-76
2021/04/02 08:21:42;;;;;;;18.38;9.68;;;;;;;28.67;22.82;96973.97;5074077;28;20038;-76
2021/04/02 08:24:09;;;;;;;16.63;9.77;;;;;;;29.55;22.01;96990.19;5073935;28;20195;-76
2021/04/02 08:26:36;;;;;;;21.77;10.50;;;;;;;30.52;21.55;96980.97;5073818;28;20028;-76
2021/04/02 08:29:04;;;;;;;29.40;10.10;;;;;;;30.22;20.91;96982.84;5073673;28;20114;-76
2021/04/02 08:31:30;;;;;;;23.30;10.07;;;;;;;28.83;22.81;96977.00;5056989;28;20114;-76
2021/04/02 08:33:56;;;;;;;21.95;10.45;;;;;;;27.94;24.09;96979.81;5073631;28;20113;-75
2021/04/02 08:36:26;;;;;;;31.80;9.43;;;;;;;28.07;23.91;96986.34;5073968;28;20491;-76
2021/04/02 08:38:53;;;;;;;69.30;10.50;;;;;;;28.19;24.54;96988.19;5091918;28;20028;-75
2021/04/02 08:41:24;;;;;;;34.13;10.88;;;;;;;26.93;24.93;96974.91;5091862;28;20483;-76
2021/04/02 08:43:51;;;;;;;24.58;8.75;;;;;;;27.67;23.28;96971.88;5073583;28;20031;-77
2021/04/02 08:46:17;;;;;;;25.00;8.05;;;;;;;28.17;23.20;96981.22;5094697;28;20019;-76
2021/04/02 08:48:47;;;;;;;15.13;7.85;;;;;;;29.42;22.42;96986.72;5061793;28;20032;-77
2021/04/02 08:51:20;;;;;;;20.55;7.50;;;;;;;29.59;21.52;96969.34;5073527;28;20491;-77
2021/04/02 08:53:45;;;;;;;19.35;7.75;;;;;;;31.08;20.22;96971.41;5073989;28;20036;-77
2021/04/02 08:56:15;;;;;;;14.68;7.75;;;;;;;31.88;18.77;96982.75;5065069;28;20050;-76
2021/04/02 08:58:41;;;;;;;13.00;7.35;;;;;;;32.85;17.94;96961.50;5077213;28;20446;-77
2021/04/02 09:01:07;;;;;;;18.50;7.07;;;;;;;33.58;18.24;96958.59;5053334;28;20036;-76
2021/04/02 09:03:32;;;;;;;19.52;8.73;;;;;;;34.55;17.06;96954.06;5041642;28;20085;-76
2021/04/02 09:05:58;;;;;;;13.70;6.85;;;;;;;34.16;18.55;96958.06;5064984;28;20542;-75
2021/04/02 09:08:24;;;;;;;23.20;8.40;;;;;;;34.60;16.83;96951.41;5048272;28;20032;-77
2021/04/02 09:10:50;;;;;;;15.50;7.93;;;;;;;33.18;17.36;96940.22;5066244;28;20032;-76
2021/04/02 09:13:15;;;;;;;19.77;7.95;;;;;;;33.91;17.74;96952.13;5040701;28;20036;-76
2021/04/02 09:15:45;;;;;;;27.98;10.65;;;;;;;33.94;17.43;96963.56;5071919;28;20055;-76
2021/04/02 09:18:14;;;;;;;13.98;6.90;;;;;;;34.36;16.78;96955.56;5077563;28;20024;-77
2021/04/02 09:20:40;;;;;;;38.42;13.20;;;;;;;33.30;18.01;96940.13;5077639;28;20517;-77
2021/04/02 09:23:09;;;;;;;34.40;15.07;;;;;;;32.84;18.80;96943.19;5051188;28;20071;-76
2021/04/02 09:25:38;;;;;;;9.00;6.97;;;;;;;30.79;19.52;96941.91;5040620;28;20389;-75
2021/04/02 09:28:07;;;;;;;9.23;6.50;;;;;;;29.99;21.20;96953.19;5040389;28;20515;-75
2021/04/02 09:30:33;;;;;;;15.43;5.50;;;;;;;29.39;21.15;96957.69;5057064;28;20490;-76
2021/04/02 09:32:59;;;;;;;7.22;4.97;;;;;;;29.14;22.35;96956.84;5057181;28;20062;-76
2021/04/02 09:35:25;;;;;;;9.95;5.05;;;;;;;28.95;21.75;96960.59;5086468;28;20084;-76
2021/04/02 09:37:51;;;;;;;9.18;4.97;;;;;;;29.09;21.05;96962.19;5061036;28;20036;-76
2021/04/02 09:40:17;;;;;;;9.60;5.45;;;;;;;27.99;21.85;96943.41;5051754;28;20137;-76
2021/04/02 09:42:47;;;;;;;21.05;6.70;;;;;;;27.69;23.31;96962.34;5051916;28;20050;-75
2021/04/02 09:45:13;;;;;;;31.10;6.40;;;;;;;28.67;22.29;96961.03;5076654;28;20028;-77
2021/04/02 09:47:43;;;;;;;10.80;5.80;;;;;;;30.14;21.91;96952.81;5065136;28;20059;-77
2021/04/02 09:50:10;;;;;;;17.15;6.10;;;;;;;31.30;20.02;96953.19;5048315;28;20097;-77
2021/04/02 09:52:38;;;;;;;8.75;5.35;;;;;;;31.62;19.81;96946.19;5079272;28;20077;-75
2021/04/02 09:55:05;;;;;;;8.60;5.03;;;;;;;32.20;18.99;96934.22;5065188;28;20508;-75
2021/04/02 09:57:31;;;;;;;9.38;6.63;;;;;;;31.12;19.68;96936.69;5092277;28;20034;-74
2021/04/02 09:59:56;;;;;;;33.13;6.78;;;;;;;28.40;22.49;96932.81;5076553;28;20024;-78
2021/04/02 10:02:22;;;;;;;19.17;5.72;;;;;;;27.99;24.08;96938.72;5059730;28;20074;-75
2021/04/02 10:04:47;;;;;;;19.60;5.40;;;;;;;29.13;22.73;96944.16;5076375;28;20031;-74
2021/04/02 10:07:13;;;;;;;12.75;5.30;;;;;;;30.71;21.17;96942.25;5076181;28;20032;-74
2021/04/02 10:09:38;;;;;;;11.77;5.55;;;;;;;31.09;20.55;96937.19;5094315;28;20024;-75
2021/04/02 10:12:05;;;;;;;21.02;5.70;;;;;;;28.78;22.56;96923.69;5075922;28;20396;-74
2021/04/02 10:14:30;;;;;;;9.63;5.47;;;;;;;28.85;23.04;96932.75;5075776;28;20503;-74
2021/04/02 10:16:56;;;;;;;17.52;5.82;;;;;;;29.14;22.97;96933.94;5076097;28;20032;-74
2021/04/02 10:19:21;;;;;;;13.30;5.72;;;;;;;30.05;22.29;96933.00;5075065;28;20031;-75
2021/04/02 10:21:47;;;;;;;13.18;5.57;;;;;;;29.05;22.67;96934.25;5076436;28;20454;-75
2021/04/02 10:24:12;;;;;;;9.80;5.57;;;;;;;28.32;23.67;96926.75;5075938;28;20411;-75
2021/04/02 10:26:38;;;;;;;12.88;5.82;;;;;;;25.79;26.32;96924.63;5075690;28;20415;-77
2021/04/02 10:39:05;;;;;;;26.58;6.93;;;;;;;24.50;29.24;96953.63;5089673;28;20020;-76
2021/04/02 10:41:31;;;;;;;13.45;6.25;;;;;;;24.24;28.73;96952.31;5093323;28;20016;-77
2021/04/02 10:43:56;;;;;;;13.13;7.05;;;;;;;23.45;30.09;96936.84;5073892;28;20020;-86
2021/04/02 10:46:22;;;;;;;15.00;6.32;;;;;;;23.29;30.35;96955.31;5075103;28;20472;-75
2021/04/02 10:48:48;;;;;;;19.77;7.78;;;;;;;23.15;31.25;96941.47;5075645;28;20487;-75
2021/04/02 10:51:13;;;;;;;22.85;9.63;;;;;;;22.70;32.97;96947.06;5075583;28;20031;-75
2021/04/02 10:53:39;;;;;;;14.98;8.10;;;;;;;22.57;33.80;96961.28;5075530;28;20028;-75
2021/04/02 10:56:05;;;;;;;14.75;7.30;;;;;;;22.24;34.53;96968.00;5075642;28;20426;-75
2021/04/02 10:58:32;;;;;;;27.05;8.05;;;;;;;21.92;35.48;96960.06;5058942;28;20119;-75
2021/04/02 11:00:58;;;;;;;41.28;9.43;;;;;;;21.34;37.45;96976.84;5075582;28;20031;-75
2021/04/02 11:03:24;;;;;;;51.30;8.10;;;;;;;20.96;39.69;96979.28;5059179;28;20020;-75
2021/04/02 11:05:50;;;;;;;49.20;9.30;;;;;;;20.81;41.65;96980.16;5075355;28;20028;-75
2021/04/02 11:08:16;;;;;;;31.02;8.82;;;;;;;20.84;41.47;96968.94;5075296;28;20035;-75
2021/04/02 11:10:41;;;;;;;26.77;9.60;;;;;;;21.03;42.36;96953.09;5058178;28;20024;-75
2021/04/02 11:13:07;;;;;;;15.20;8.85;;;;;;;21.35;41.70;96941.28;5075140;28;20545;-75
2021/04/02 11:15:32;;;;;;;23.17;8.75;;;;;;;21.70;40.99;96937.19;5075517;28;20028;-74
2021/04/02 11:17:58;;;;;;;16.48;8.77;;;;;;;21.49;40.18;96936.97;5075051;28;20036;-75
2021/04/02 11:20:28;;;;;;;25.27;8.88;;;;;;;21.84;39.06;96925.53;5093297;28;20054;-75
2021/04/02 11:22:55;;;;;;;15.40;8.25;;;;;;;22.08;38.08;96930.00;5075828;28;20024;-75
2021/04/02 11:25:21;;;;;;;11.57;7.25;;;;;;;21.87;37.31;96921.63;5075027;28;20028;-75
2021/04/02 11:27:47;;;;;;;15.00;6.72;;;;;;;21.95;36.55;96922.44;5058125;28;20133;-75
2021/04/02 11:30:17;;;;;;;21.08;10.70;;;;;;;22.10;37.03;96930.66;5074011;28;20056;-75
2021/04/02 11:32:42;;;;;;;13.98;7.75;;;;;;;22.39;37.00;96925.34;5074856;28;20477;-75
2021/04/02 11:35:09;;;;;;;22.08;7.30;;;;;;;23.36;34.53;96932.50;5074918;28;20169;-75
2021/04/02 11:37:35;;;;;;;58.92;8.48;;;;;;;24.23;33.13;96928.78;5075059;28;20380;-75
2021/04/02 11:40:04;;;;;;;16.98;8.52;;;;;;;24.33;31.97;96925.72;5074566;28;20039;-76
2021/04/02 11:42:29;;;;;;;10.80;6.32;;;;;;;24.73;29.66;96918.69;5074961;28;20509;-76
2021/04/02 11:44:55;;;;;;;13.18;5.90;;;;;;;24.78;29.15;96916.19;5074532;28;20031;-75
2021/04/02 11:47:20;;;;;;;13.30;6.15;;;;;;;24.69;29.36;96910.03;5074557;28;20055;-75
2021/04/02 11:49:46;;;;;;;11.73;5.65;;;;;;;25.17;28.40;96913.75;5091419;28;20059;-76
2021/04/02 11:52:11;;;;;;;12.02;6.50;;;;;;;25.30;28.02;96913.84;5074249;28;20032;-76
2021/04/02 11:54:37;;;;;;;10.77;6.78;;;;;;;25.62;27.48;96904.13;5107992;28;20109;-75
2021/04/02 11:57:03;;;;;;;27.00;7.25;;;;;;;26.00;26.63;96909.94;5074196;28;20036;-75
2021/04/02 11:59:29;;;;;;;21.75;5.65;;;;;;;26.27;26.15;96908.13;5074641;28;20016;-76
2021/04/02 12:01:54;;;;;;;10.07;5.65;;;;;;;27.14;25.40;96897.78;5057554;28;20027;-75
2021/04/02 12:04:20;;;;;;;52.78;9.85;;;;;;;26.76;26.19;96899.50;5074311;28;20035;-75
2021/04/02 12:06:46;;;;;;;11.95;8.15;;;;;;;26.17;26.84;96905.81;5074202;28;20028;-75
2021/04/02 12:09:11;;;;;;;16.50;5.28;;;;;;;26.54;25.68;96903.50;5073667;28;20074;-75
2021/04/02 12:11:38;;;;;;;16.27;5.82;;;;;;;25.06;27.49;96908.84;5074101;28;20492;-75
2021/04/02 12:14:05;;;;;;;9.25;4.43;;;;;;;25.17;27.26;96921.97;5090757;28;20096;-76
2021/04/02 12:16:30;;;;;;;62.78;7.03;;;;;;;25.26;27.75;96920.75;5092209;28;20077;-75
2021/04/02 12:18:57;;;;;;;14.65;4.68;;;;;;;25.97;26.62;96898.53;5057172;28;20118;-75
2021/04/02 12:21:23;;;;;;;8.00;4.20;;;;;;;26.30;25.74;96896.75;5107811;28;20475;-75
2021/04/02 12:23:48;;;;;;;14.82;5.63;;;;;;;26.61;26.29;96890.66;5092094;28;20063;-75
2021/04/02 12:26:14;;;;;;;10.00;4.80;;;;;;;27.00;24.85;96879.66;5091918;28;20024;-75
2021/04/02 12:28:40;;;;;;;10.57;4.82;;;;;;;26.46;25.67;96876.25;5073603;28;20110;-75
2021/04/02 12:31:05;;;;;;;10.02;5.72;;;;;;;27.55;25.04;96888.41;5091781;28;20505;-75
2021/04/02 12:33:31;;;;;;;9.57;5.65;;;;;;;28.01;24.76;96872.53;5074070;28;20113;-76
2021/04/02 12:35:58;;;;;;;13.93;6.10;;;;;;;28.52;24.66;96873.25;5073653;28;20097;-75
2021/04/02 12:38:24;;;;;;;25.35;6.40;;;;;;;28.44;23.96;96876.28;5057153;28;20043;-75
2021/04/02 12:40:50;;;;;;;7.57;4.70;;;;;;;28.97;23.34;96881.38;5073849;28;20095;-76
2021/04/02 12:43:16;;;;;;;203.43;17.60;;;;;;;28.73;24.15;96874.78;5073579;28;20027;-76
2021/04/02 12:45:42;;;;;;;29.80;6.13;;;;;;;28.61;23.65;96870.22;5057040;28;20562;-77
2021/04/02 12:48:08;;;;;;;16.23;5.93;;;;;;;28.95;23.41;96867.81;5073617;28;20111;-75
2021/04/02 12:50:34;;;;;;;7.88;4.20;;;;;;;28.53;23.54;96863.94;5057138;28;20031;-76
2021/04/02 12:53:00;;;;;;;6.07;4.00;;;;;;;27.79;24.58;96851.91;5057149;28;20078;-76
2021/04/02 12:55:27;;;;;;;23.90;4.15;;;;;;;27.99;24.65;96858.97;5073330;28;20048;-76
2021/04/02 12:57:53;;;;;;;72.95;7.30;;;;;;;27.94;24.77;96852.47;5073881;28;20043;-76
2021/04/02 13:00:29;;;;;;;8.63;4.30;;;;;;;28.53;24.69;96844.66;5056898;28;20032;-76
2021/04/02 13:02:58;;;;;;;7.13;3.63;;;;;;;28.48;23.69;96846.41;5057819;28;20086;-76
2021/04/02 13:05:24;;;;;;;11.60;3.97;;;;;;;27.30;25.41;96845.13;5057296;28;20020;-76
2021/04/02 13:07:50;;;;;;;4.22;3.22;;;;;;;27.25;25.54;96853.19;5073894;28;20488;-76